createdAt,value
2023-01-11T00:03:01.563Z,3.55
2023-01-11T00:06:04.889Z,4.80
2023-01-11T00:09:07.026Z,4.67
2023-01-11T00:12:12.293Z,4.05
2023-01-11T00:15:15.392Z,5.35
2023-01-11T00:18:17.544Z,4.40
2023-01-11T00:21:19.927Z,4.28
2023-01-11T00:24:22.154Z,3.83
2023-01-11T00:27:24.314Z,3.25
2023-01-11T00:30:26.499Z,3.58
2023-01-11T00:33:28.704Z,3.42
2023-01-11T00:36:30.814Z,3.63
2023-01-11T00:39:32.930Z,4.40
2023-01-11T00:42:53.818Z,3.22
2023-01-11T00:46:17.039Z,3.75
2023-01-11T00:49:19.249Z,4.03
2023-01-11T00:52:21.436Z,4.75
2023-01-11T00:55:23.941Z,5.38
2023-01-11T00:58:26.085Z,3.42
2023-01-11T01:01:28.231Z,3.42
2023-01-11T01:04:30.470Z,3.30
2023-01-11T01:07:32.599Z,3.00
2023-01-11T01:10:34.743Z,6.63
2023-01-11T01:13:55.516Z,3.75
2023-01-11T01:17:01.544Z,4.97
2023-01-11T01:20:04.412Z,4.73
2023-01-11T01:23:06.553Z,2.95
2023-01-11T01:26:08.752Z,3.50
2023-01-11T01:29:11.816Z,4.25
2023-01-11T01:32:13.983Z,3.47
2023-01-11T01:35:16.133Z,3.75
2023-01-11T01:38:18.230Z,5.45
2023-01-11T01:41:20.657Z,4.67
2023-01-11T01:44:47.478Z,6.38
2023-01-11T01:47:55.524Z,3.80
2023-01-11T01:51:00.246Z,4.43
2023-01-11T01:54:06.350Z,2.90
2023-01-11T01:57:15.929Z,4.28
2023-01-11T02:00:18.465Z,3.67
2023-01-11T02:03:25.587Z,4.20
2023-01-11T02:06:27.836Z,5.82
2023-01-11T02:09:39.198Z,3.40
2023-01-11T02:13:00.999Z,4.07
2023-01-11T02:16:09.438Z,5.00
2023-01-11T02:19:30.788Z,2.85
2023-01-11T02:22:45.272Z,4.67
2023-01-11T02:26:25.138Z,3.88
2023-01-11T02:29:38.144Z,4.55
2023-01-11T02:32:49.393Z,4.15
2023-01-11T02:36:24.475Z,5.05
2023-01-11T02:39:32.477Z,3.30
2023-01-11T02:43:19.439Z,3.15
2023-01-11T02:46:42.541Z,2.90
2023-01-11T02:50:11.176Z,2.95
2023-01-11T02:53:17.246Z,3.55
2023-01-11T02:56:23.217Z,3.90
2023-01-11T02:59:31.298Z,4.22
2023-01-11T03:02:33.550Z,5.35
2023-01-11T03:05:40.112Z,4.10
2023-01-11T03:09:19.004Z,3.40
2023-01-11T03:12:57.618Z,5.70
2023-01-11T03:16:21.138Z,5.90
2023-01-11T03:19:39.919Z,5.00
2023-01-11T03:23:07.237Z,3.38
2023-01-11T03:26:18.153Z,5.40
2023-01-11T03:29:20.182Z,6.33
2023-01-11T03:32:29.775Z,6.00
2023-01-11T03:35:51.233Z,3.88
2023-01-11T03:39:19.315Z,5.28
2023-01-11T03:42:22.036Z,4.97
2023-01-11T03:45:25.585Z,5.13
2023-01-11T03:48:32.382Z,4.43
2023-01-11T03:51:46.211Z,5.33
2023-01-11T03:54:48.942Z,7.43
2023-01-11T03:57:52.296Z,5.53
2023-01-11T04:00:58.078Z,7.60
2023-01-11T04:04:00.483Z,8.77
2023-01-11T04:07:02.587Z,7.97
2023-01-11T04:10:05.243Z,7.10
2023-01-11T04:13:07.413Z,4.70
2023-01-11T04:16:09.602Z,8.43
2023-01-11T04:19:11.815Z,8.20
2023-01-11T04:22:16.961Z,6.57
2023-01-11T04:25:19.097Z,6.00
2023-01-11T04:28:21.302Z,5.40
2023-01-11T04:31:23.454Z,6.20
2023-01-11T04:34:28.430Z,6.03
2023-01-11T04:37:30.552Z,5.93
2023-01-11T04:40:32.696Z,7.97
2023-01-11T04:43:34.852Z,5.88
2023-01-11T04:46:37.026Z,5.38
2023-01-11T04:49:39.191Z,7.07
2023-01-11T04:52:41.808Z,7.10
2023-01-11T04:55:44.063Z,7.15
2023-01-11T04:58:46.262Z,8.48
2023-01-11T05:01:48.394Z,6.87
2023-01-11T05:04:50.551Z,6.50
2023-01-11T05:07:52.720Z,5.82
2023-01-11T05:10:55.817Z,8.07
2023-01-11T05:13:59.930Z,6.38
2023-01-11T05:17:02.151Z,5.10
2023-01-11T05:20:04.858Z,7.03
2023-01-11T05:23:07.013Z,5.00
2023-01-11T05:26:11.797Z,6.35
2023-01-11T05:29:20.398Z,7.15
2023-01-11T05:32:22.536Z,6.83
2023-01-11T05:35:24.702Z,9.95
2023-01-11T05:38:27.334Z,6.00
2023-01-11T05:41:29.486Z,7.85
2023-01-11T05:44:50.224Z,8.35
2023-01-11T05:47:53.437Z,8.57
2023-01-11T05:50:56.440Z,7.05
2023-01-11T05:53:59.469Z,7.40
2023-01-11T05:57:01.635Z,7.20
2023-01-11T06:00:04.512Z,8.77
2023-01-11T06:03:08.612Z,6.43
2023-01-11T06:06:10.958Z,7.95
2023-01-11T06:09:13.131Z,9.38
2023-01-11T06:12:15.343Z,6.97
2023-01-11T06:15:17.507Z,7.13
2023-01-11T06:18:20.357Z,5.43
2023-01-11T06:21:22.598Z,10.25
2023-01-11T06:24:24.845Z,8.10
2023-01-11T06:27:27.148Z,6.10
2023-01-11T06:30:29.418Z,8.77
2023-01-11T06:33:32.009Z,7.43
2023-01-11T06:36:34.267Z,5.60
2023-01-11T06:39:36.480Z,6.72
2023-01-11T06:42:38.774Z,7.45
2023-01-11T06:45:44.088Z,6.75
2023-01-11T06:48:46.473Z,7.15
2023-01-11T06:51:48.601Z,6.30
2023-01-11T06:54:50.883Z,6.73
2023-01-11T06:57:53.307Z,8.43
2023-01-11T07:00:57.148Z,11.57
2023-01-11T07:03:59.714Z,9.33
2023-01-11T07:07:02.125Z,10.77
2023-01-11T07:10:09.200Z,6.28
2023-01-11T07:13:12.638Z,9.18
2023-01-11T07:16:17.739Z,10.85
2023-01-11T07:19:20.419Z,8.63
2023-01-11T07:22:22.935Z,10.77
2023-01-11T07:25:27.662Z,8.67
2023-01-11T07:28:30.735Z,8.30
2023-01-11T07:31:32.949Z,9.02
2023-01-11T07:34:35.264Z,8.90
2023-01-11T07:37:38.141Z,9.43
2023-01-11T07:40:40.403Z,11.32
2023-01-11T07:43:42.565Z,8.93
2023-01-11T07:46:44.749Z,11.88
2023-01-11T07:49:47.142Z,7.07
2023-01-11T07:52:50.185Z,9.38
2023-01-11T07:55:52.557Z,9.93
2023-01-11T07:58:54.884Z,11.27
2023-01-11T08:05:42.862Z,11.30
2023-01-11T08:08:45.635Z,10.15
2023-01-11T08:12:12.539Z,8.57
2023-01-11T08:15:15.504Z,12.75
2023-01-11T08:18:17.802Z,9.57
2023-01-11T08:21:21.430Z,12.30
2023-01-11T08:24:23.701Z,11.45
2023-01-11T08:27:25.812Z,11.60
2023-01-11T08:30:28.850Z,10.73
2023-01-11T08:33:30.974Z,12.15
2023-01-11T08:36:33.134Z,13.00
2023-01-11T08:39:35.391Z,11.70
2023-01-11T08:42:37.607Z,9.75
2023-01-11T08:45:39.754Z,12.40
2023-01-11T08:48:42.284Z,13.32
2023-01-11T08:51:44.515Z,13.75
2023-01-11T08:54:46.942Z,11.52
2023-01-11T08:57:49.532Z,12.70
2023-01-11T09:01:00.074Z,9.70
2023-01-11T09:04:12.561Z,12.65
2023-01-11T09:07:27.088Z,11.50
2023-01-11T09:10:29.922Z,11.15
2023-01-11T09:13:32.327Z,13.25
2023-01-11T09:16:34.469Z,11.68
2023-01-11T09:19:36.899Z,11.88
2023-01-11T09:22:39.711Z,12.40
2023-01-11T09:25:45.216Z,10.43
2023-01-11T09:28:47.788Z,11.00
2023-01-11T09:31:50.393Z,13.50
2023-01-11T09:34:57.312Z,12.57
2023-01-11T09:37:59.969Z,9.27
2023-01-11T09:41:16.747Z,13.02
2023-01-11T09:44:23.325Z,9.68
2023-01-11T09:47:38.444Z,10.02
2023-01-11T09:50:43.826Z,8.63
2023-01-11T09:53:52.313Z,10.98
2023-01-11T09:57:23.851Z,8.45
2023-01-11T10:04:06.318Z,10.68
2023-01-11T10:07:39.551Z,9.93
2023-01-11T10:18:26.286Z,14.07
2023-01-11T10:18:27.368Z,9.75
2023-01-11T10:21:50.743Z,9.20
2023-01-11T10:25:05.536Z,10.65
2023-01-11T10:28:17.383Z,11.70
2023-01-11T10:31:30.507Z,10.27
2023-01-11T10:34:42.813Z,8.20
2023-01-11T10:38:05.074Z,8.95
2023-01-11T10:41:20.416Z,9.18
2023-01-11T10:45:05.636Z,9.83
2023-01-11T10:48:25.178Z,9.80
2023-01-11T10:51:49.116Z,17.20
2023-01-11T10:55:12.405Z,10.63
2023-01-11T11:02:49.428Z,12.02
2023-01-11T11:05:55.100Z,10.95
2023-01-11T11:09:05.719Z,11.87
2023-01-11T11:12:28.389Z,10.95
2023-01-11T11:15:44.312Z,7.97
2023-01-11T11:18:52.637Z,8.00
2023-01-11T11:21:55.624Z,12.40
2023-01-11T11:25:01.804Z,6.22
2023-01-11T11:28:22.361Z,7.25
2023-01-11T11:31:24.636Z,5.47
2023-01-11T11:34:46.310Z,5.82
2023-01-11T11:37:49.056Z,7.05
2023-01-11T11:41:04.586Z,5.40
2023-01-11T11:44:24.405Z,6.72
2023-01-11T11:47:30.033Z,6.82
2023-01-11T11:50:45.162Z,6.87
2023-01-11T11:53:55.761Z,6.32
2023-01-11T11:57:20.288Z,5.28
2023-01-11T12:00:37.329Z,7.03
2023-01-11T12:03:42.912Z,5.70
2023-01-11T12:07:14.819Z,4.10
2023-01-11T12:10:21.260Z,5.30
2023-01-11T12:13:40.360Z,3.47
2023-01-11T12:16:44.271Z,5.97
2023-01-11T12:19:47.909Z,4.55
2023-01-11T12:22:51.000Z,3.50
2023-01-11T12:26:00.626Z,3.28
2023-01-11T12:29:09.568Z,2.28
2023-01-11T12:32:30.584Z,3.92
2023-01-11T12:35:49.955Z,4.20
2023-01-11T12:39:10.992Z,4.10
2023-01-11T12:42:16.112Z,2.78
2023-01-11T12:45:25.996Z,3.13
2023-01-11T12:48:41.178Z,3.13
2023-01-11T12:52:00.730Z,5.13
2023-01-11T12:55:29.947Z,2.93
2023-01-11T12:58:51.329Z,2.65
2023-01-11T13:02:03.516Z,3.95
2023-01-11T13:05:33.635Z,2.67
2023-01-11T13:08:56.451Z,3.70
2023-01-11T13:12:20.079Z,3.88
2023-01-11T13:15:34.688Z,3.53
2023-01-11T13:18:46.491Z,3.33
2023-01-11T13:21:59.034Z,3.97
2023-01-11T13:25:04.488Z,3.17
2023-01-11T13:28:32.748Z,3.43
2023-01-11T13:31:36.097Z,2.65
2023-01-11T13:34:47.521Z,3.58
2023-01-11T13:38:04.665Z,3.92
2023-01-11T13:41:35.545Z,4.25
2023-01-11T13:44:43.671Z,8.75
2023-01-11T13:47:52.057Z,9.00
2023-01-11T13:51:11.640Z,11.33
2023-01-11T13:54:20.829Z,9.98
2023-01-11T13:57:35.494Z,13.77
2023-01-11T14:01:07.601Z,14.17
2023-01-11T14:04:25.780Z,11.18
2023-01-11T14:08:05.971Z,12.15
2023-01-11T14:11:28.344Z,10.23
2023-01-11T14:14:39.621Z,10.88
2023-01-11T14:18:05.651Z,9.80
2023-01-11T14:21:10.655Z,11.27
2023-01-11T14:24:13.988Z,10.20
2023-01-11T14:27:28.057Z,8.77
2023-01-11T14:30:42.162Z,6.55
2023-01-11T14:34:09.056Z,6.70
2023-01-11T14:37:31.075Z,9.35
2023-01-11T14:40:39.223Z,8.80
2023-01-11T14:43:44.480Z,11.23
2023-01-11T14:47:11.112Z,8.95
2023-01-11T14:50:20.296Z,12.07
2023-01-11T14:53:36.809Z,10.05
2023-01-11T14:56:41.991Z,8.03
2023-01-11T14:59:44.172Z,8.05
2023-01-11T15:02:59.622Z,7.60
2023-01-11T15:06:09.965Z,10.30
2023-01-11T15:09:48.108Z,7.72
2023-01-11T15:12:55.755Z,8.60
2023-01-11T15:16:34.959Z,11.98
2023-01-11T15:19:39.679Z,9.40
2023-01-11T15:22:41.958Z,7.30
2023-01-11T15:25:47.367Z,7.68
2023-01-11T15:28:55.112Z,6.77
2023-01-11T15:32:06.790Z,10.52
2023-01-11T15:35:32.471Z,12.00
2023-01-11T15:38:38.001Z,11.50
2023-01-11T15:42:04.658Z,10.13
2023-01-11T15:45:33.075Z,10.88
2023-01-11T15:48:53.537Z,9.68
2023-01-11T15:52:29.756Z,11.60
2023-01-11T15:56:05.754Z,9.30
2023-01-11T15:59:07.827Z,8.73
2023-01-11T16:02:12.953Z,10.33
2023-01-11T16:05:29.689Z,9.68
2023-01-11T16:08:58.902Z,9.05
2023-01-11T16:12:25.842Z,10.07
2023-01-11T16:16:05.877Z,10.18
2023-01-11T16:19:15.096Z,10.18
2023-01-11T16:22:22.494Z,9.07
2023-01-11T16:25:29.343Z,11.55
2023-01-11T16:28:31.566Z,8.77
2023-01-11T16:31:58.468Z,7.80
2023-01-11T16:35:01.776Z,8.23
2023-01-11T16:38:05.258Z,12.18
2023-01-11T16:41:08.845Z,11.70
2023-01-11T16:44:41.495Z,10.77
2023-01-11T16:48:01.638Z,10.90
2023-01-11T16:51:16.325Z,9.25
2023-01-11T16:54:24.323Z,9.70
2023-01-11T16:57:31.027Z,12.57
2023-01-11T17:00:38.473Z,11.30
2023-01-11T17:03:46.762Z,13.13
2023-01-11T17:06:48.950Z,16.50
2023-01-11T17:09:51.715Z,14.45
2023-01-11T17:13:46.045Z,16.52
2023-01-11T17:16:59.934Z,13.30
2023-01-11T17:20:02.597Z,18.30
2023-01-11T17:23:05.229Z,13.98
2023-01-11T17:26:14.456Z,15.02
2023-01-11T17:29:23.472Z,15.70
2023-01-11T17:32:41.445Z,13.13
2023-01-11T17:35:43.596Z,12.80
2023-01-11T17:38:45.841Z,13.57
2023-01-11T17:42:06.425Z,13.27
2023-01-11T17:45:24.077Z,14.68
2023-01-11T17:48:27.406Z,14.27
2023-01-11T17:51:32.580Z,11.15
2023-01-11T17:54:34.820Z,13.07
2023-01-11T17:57:37.032Z,12.13
2023-01-11T18:00:40.711Z,13.70
2023-01-11T18:03:45.999Z,13.57
2023-01-11T18:06:49.138Z,14.13
2023-01-11T18:09:58.114Z,16.40
2023-01-11T18:13:00.446Z,13.25
2023-01-11T18:16:03.309Z,14.30
2023-01-11T18:19:24.210Z,17.87
2023-01-11T18:22:40.527Z,15.60
2023-01-11T18:25:45.961Z,25.10
2023-01-11T18:28:49.951Z,26.00
2023-01-11T18:31:53.262Z,27.33
2023-01-11T18:34:55.523Z,23.55
2023-01-11T18:37:57.685Z,21.80
2023-01-11T18:41:24.429Z,20.27
2023-01-11T18:44:28.524Z,27.92
2023-01-11T18:47:30.785Z,20.95
2023-01-11T18:50:41.248Z,20.33
2023-01-11T18:53:43.370Z,18.20
2023-01-11T18:56:45.580Z,20.13
2023-01-11T18:59:48.347Z,23.35
2023-01-11T19:05:53.827Z,21.50
2023-01-11T19:08:55.968Z,22.73
2023-01-11T19:11:58.181Z,23.87
2023-01-11T19:15:00.385Z,23.05
2023-01-11T19:18:03.407Z,36.70
2023-01-11T19:21:06.650Z,27.90
2023-01-11T19:24:08.975Z,29.00
2023-01-11T19:27:13.367Z,24.80
2023-01-11T19:30:15.719Z,29.35
2023-01-11T19:33:18.254Z,35.83
2023-01-11T19:36:20.497Z,31.15
2023-01-11T19:39:22.679Z,33.63
2023-01-11T19:42:24.883Z,30.87
2023-01-11T19:45:27.062Z,33.35
2023-01-11T19:48:33.079Z,33.35
2023-01-11T19:51:35.312Z,34.07
2023-01-11T19:54:38.187Z,38.47
2023-01-11T19:57:40.519Z,37.05
2023-01-11T20:00:42.740Z,32.55
2023-01-11T20:03:45.169Z,32.85
2023-01-11T20:06:52.129Z,36.20
2023-01-11T20:09:54.408Z,34.47
2023-01-11T20:12:58.586Z,33.20
2023-01-11T20:16:14.919Z,34.80
2023-01-11T20:19:17.519Z,35.17
2023-01-11T20:22:26.150Z,34.00
2023-01-11T20:25:28.450Z,34.83
2023-01-11T20:28:32.509Z,37.03
2023-01-11T20:31:35.629Z,34.55
2023-01-11T20:34:37.906Z,43.60
2023-01-11T20:37:40.138Z,36.72
2023-01-11T20:40:42.417Z,39.38
2023-01-11T20:43:44.682Z,35.13
2023-01-11T20:46:48.395Z,36.05
2023-01-11T20:49:50.688Z,41.33
2023-01-11T20:52:53.175Z,35.40
2023-01-11T20:55:56.306Z,38.65
2023-01-11T20:58:58.564Z,38.63
2023-01-11T21:02:00.893Z,37.53
2023-01-11T21:05:05.963Z,36.15
2023-01-11T21:08:08.150Z,40.70
2023-01-11T21:11:12.196Z,36.75
2023-01-11T21:14:14.444Z,44.40
2023-01-11T21:17:17.387Z,45.38
2023-01-11T21:20:19.595Z,41.33
2023-01-11T21:23:21.753Z,48.83
2023-01-11T21:26:24.859Z,42.90
2023-01-11T21:29:27.029Z,46.88
2023-01-11T21:32:29.221Z,48.15
2023-01-11T21:35:33.941Z,47.33
2023-01-11T21:38:36.115Z,50.03
2023-01-11T21:41:58.755Z,42.65
2023-01-11T21:45:01.054Z,47.77
2023-01-11T21:48:03.222Z,44.90
2023-01-11T21:51:11.663Z,50.50
2023-01-11T21:54:15.017Z,48.90
2023-01-11T21:57:17.151Z,50.22
2023-01-11T22:00:19.928Z,51.35
2023-01-11T22:03:29.353Z,50.83
2023-01-11T22:06:31.838Z,49.67
2023-01-11T22:09:34.219Z,51.40
2023-01-11T22:12:36.406Z,48.90
2023-01-11T22:15:38.679Z,49.47
2023-01-11T22:18:41.417Z,50.78
2023-01-11T22:21:44.008Z,50.10
2023-01-11T22:24:46.440Z,47.63
2023-01-11T22:27:48.573Z,48.30
2023-01-11T22:30:50.716Z,45.65
2023-01-11T22:33:53.253Z,50.13
2023-01-11T22:36:55.661Z,49.92
2023-01-11T22:40:00.709Z,46.95
2023-01-11T22:43:03.595Z,50.03
2023-01-11T22:46:05.940Z,53.03
2023-01-11T22:49:08.389Z,53.60
2023-01-11T22:52:10.578Z,53.67
2023-01-11T22:55:12.726Z,51.17
2023-01-11T22:58:14.974Z,52.17
2023-01-11T23:01:20.342Z,53.47
2023-01-11T23:04:22.617Z,50.47
2023-01-11T23:07:24.794Z,54.85
2023-01-11T23:10:26.922Z,46.75
2023-01-11T23:13:47.777Z,50.63
2023-01-11T23:16:52.581Z,51.17
2023-01-11T23:19:54.755Z,51.90
2023-01-11T23:22:56.873Z,50.40
2023-01-11T23:25:59.175Z,52.73
2023-01-11T23:29:01.568Z,53.22
2023-01-11T23:32:03.956Z,51.95
2023-01-11T23:35:06.626Z,52.03
2023-01-11T23:38:08.787Z,41.85
2023-01-11T23:41:31.551Z,50.55
2023-01-11T23:44:33.918Z,49.53
2023-01-11T23:47:36.046Z,50.77
2023-01-11T23:50:38.256Z,48.42
2023-01-11T23:53:40.584Z,50.70
2023-01-11T23:56:42.873Z,51.83
2023-01-11T23:59:45.462Z,51.70
